This is the latest recevied weather packets stored in our database for station/object KO4RJX-11. If no packets are shown the sender has not sent any weather packets the latest 10 day(s).
| Time | Temp. | Humidity | Pressure | Rain* | Wind** | Luminosity | Snow |
|---|---|---|---|---|---|---|---|
| 1777464391 | 16.11° C | 81% | 1010.3 hPa | 0 mm | - | - | - |
| 1777459591 | 15° C | 87% | 1009.7 hPa | 0 mm | - | - | - |
| 1777451591 | 13.89° C | 94% | 1009.7 hPa | 0 mm | - | - | - |
| 1777446391 | 13.89° C | 94% | 1010 hPa | 0 mm | - | - | - |
| 1777443591 | 13.89° C | 92% | 1010 hPa | 0 mm | - | - | - |
| 1777443191 | 14.44° C | 92% | 1010 hPa | 0 mm | - | - | - |
| 1777438391 | 14.44° C | 91% | 1011.7 hPa | 0 mm | - | - | - |
| 1777435991 | 14.44° C | 90% | 1012.4 hPa | 0 mm | - | - | - |
| 1777434791 | 14.44° C | 91% | 1012.4 hPa | 0 mm | - | - | - |
| 1777432791 | 15° C | 87% | 1012.7 hPa | 0 mm | - | - | - |
| 1777428391 | 16.11° C | 83% | 1012.4 hPa | 0 mm | - | - | - |
| 1777426791 | 15.56° C | 85% | 1012 hPa | 0 mm | - | - | - |
| 1777423991 | 16.67° C | 81% | 1011.7 hPa | 0 mm | - | - | - |
| 1777421991 | 17.78° C | 76% | 1011.4 hPa | 0 mm | - | - | - |
| 1777420791 | 18.33° C | 73% | 1011 hPa | 0 mm | - | - | - |
| 1777420391 | 18.33° C | 71% | 1011 hPa | 0 mm | - | - | - |
| 1777419991 | 18.89° C | 70% | 1011.4 hPa | 0 mm | - | - | - |
| 1777419191 | 19.44° C | 66% | 1011.4 hPa | 0 mm | - | - | - |
| 1777414391 | 21.11° C | 57% | 1012.4 hPa | 0 mm | - | - | - |
| 1777407191 | 21.11° C | 51% | 1012.7 hPa | 0 mm | - | - | - |
| 1777406792 | 21.11° C | 51% | 1013.1 hPa | 0 mm | - | - | - |
| 1777405991 | 21.11° C | 52% | 1013.1 hPa | 0 mm | - | - | - |
| 1777404391 | 20.56° C | 50% | 1013.7 hPa | 0 mm | - | - | - |
| 1777403591 | 19.44° C | 52% | 1013.7 hPa | 0 mm | - | - | - |
| 1777401191 | 19.44° C | 49% | 1014.1 hPa | 0 mm | - | - | - |
* Rain since midnight (hover to see other rain measurements)
** Current wind speed in m/s (hover to see current wind gust speed)